sensor_id;sensor_type;location;lat;lon;timestamp;noise_LAeq;noise_LA_min;noise_LA_max;noise_LA01;noise_LA95
72415;Laerm;60995;52.154;4.498;2024-02-21T00:01:58;44.33;38.01;53.14;;
72415;Laerm;60995;52.154;4.498;2024-02-21T00:04:14;43.49;38.54;51.24;;
72415;Laerm;60995;52.154;4.498;2024-02-21T00:06:32;43.82;38.29;59.77;;
72415;Laerm;60995;52.154;4.498;2024-02-21T00:08:48;43.36;38.26;49.99;;
72415;Laerm;60995;52.154;4.498;2024-02-21T00:11:05;43.55;38.71;53.31;;
72415;Laerm;60995;52.154;4.498;2024-02-21T00:13:21;44.46;38.34;53.82;;
72415;Laerm;60995;52.154;4.498;2024-02-21T00:15:37;43.52;38.59;50.69;;
72415;Laerm;60995;52.154;4.498;2024-02-21T00:17:54;43.30;38.55;56.00;;
72415;Laerm;60995;52.154;4.498;2024-02-21T00:20:11;44.06;39.12;53.01;;
72415;Laerm;60995;52.154;4.498;2024-02-21T00:22:27;44.78;39.04;53.66;;
72415;Laerm;60995;52.154;4.498;2024-02-21T00:24:47;43.41;38.54;52.26;;
72415;Laerm;60995;52.154;4.498;2024-02-21T00:27:03;42.91;38.06;49.16;;
72415;Laerm;60995;52.154;4.498;2024-02-21T00:29:20;42.55;37.29;49.31;;
72415;Laerm;60995;52.154;4.498;2024-02-21T00:31:36;43.37;38.03;50.66;;
72415;Laerm;60995;52.154;4.498;2024-02-21T00:33:53;43.57;38.76;49.71;;
72415;Laerm;60995;52.154;4.498;2024-02-21T00:36:10;43.11;38.56;51.96;;
72415;Laerm;60995;52.154;4.498;2024-02-21T00:38:26;44.54;38.34;53.95;;
72415;Laerm;60995;52.154;4.498;2024-02-21T00:40:42;42.49;37.71;49.15;;
72415;Laerm;60995;52.154;4.498;2024-02-21T00:42:59;43.80;38.41;53.07;;
72415;Laerm;60995;52.154;4.498;2024-02-21T00:45:15;43.25;38.43;50.21;;
72415;Laerm;60995;52.154;4.498;2024-02-21T00:47:31;44.39;38.28;54.65;;
72415;Laerm;60995;52.154;4.498;2024-02-21T00:49:48;44.44;37.89;56.60;;
72415;Laerm;60995;52.154;4.498;2024-02-21T00:52:04;43.58;38.33;50.51;;
72415;Laerm;60995;52.154;4.498;2024-02-21T00:54:20;42.11;37.24;48.76;;
72415;Laerm;60995;52.154;4.498;2024-02-21T00:56:37;43.22;36.40;50.81;;
72415;Laerm;60995;52.154;4.498;2024-02-21T00:58:53;43.42;37.88;55.91;;
72415;Laerm;60995;52.154;4.498;2024-02-21T01:01:10;43.98;37.66;60.82;;
72415;Laerm;60995;52.154;4.498;2024-02-21T01:03:26;43.16;37.51;61.62;;
72415;Laerm;60995;52.154;4.498;2024-02-21T01:05:43;42.84;37.99;50.39;;
72415;Laerm;60995;52.154;4.498;2024-02-21T01:07:59;43.61;38.01;54.89;;
72415;Laerm;60995;52.154;4.498;2024-02-21T01:10:15;42.04;36.64;50.41;;
72415;Laerm;60995;52.154;4.498;2024-02-21T01:12:33;42.59;37.70;49.51;;
72415;Laerm;60995;52.154;4.498;2024-02-21T01:14:49;42.43;36.62;48.14;;
72415;Laerm;60995;52.154;4.498;2024-02-21T01:17:05;44.66;37.52;57.10;;
72415;Laerm;60995;52.154;4.498;2024-02-21T01:19:22;43.58;37.55;54.19;;
72415;Laerm;60995;52.154;4.498;2024-02-21T01:21:38;43.00;37.75;54.81;;
72415;Laerm;60995;52.154;4.498;2024-02-21T01:23:56;43.51;37.43;54.62;;
72415;Laerm;60995;52.154;4.498;2024-02-21T01:26:14;42.04;37.14;49.39;;
72415;Laerm;60995;52.154;4.498;2024-02-21T01:28:31;43.02;37.30;55.44;;
72415;Laerm;60995;52.154;4.498;2024-02-21T01:30:48;42.48;36.94;50.48;;
72415;Laerm;60995;52.154;4.498;2024-02-21T01:33:04;43.20;37.75;52.97;;
72415;Laerm;60995;52.154;4.498;2024-02-21T01:35:22;43.52;37.52;52.74;;
72415;Laerm;60995;52.154;4.498;2024-02-21T01:37:38;42.78;37.64;51.79;;
72415;Laerm;60995;52.154;4.498;2024-02-21T01:39:54;42.72;36.41;53.30;;
72415;Laerm;60995;52.154;4.498;2024-02-21T01:42:11;42.36;37.64;49.34;;
72415;Laerm;60995;52.154;4.498;2024-02-21T01:44:27;41.94;37.33;56.89;;
72415;Laerm;60995;52.154;4.498;2024-02-21T01:46:43;44.64;37.49;63.14;;
72415;Laerm;60995;52.154;4.498;2024-02-21T01:49:01;43.48;38.19;54.83;;
72415;Laerm;60995;52.154;4.498;2024-02-21T01:51:17;42.88;37.11;51.17;;
72415;Laerm;60995;52.154;4.498;2024-02-21T01:53:38;42.48;37.95;49.22;;
72415;Laerm;60995;52.154;4.498;2024-02-21T01:55:57;42.30;37.43;51.07;;
72415;Laerm;60995;52.154;4.498;2024-02-21T01:58:14;42.86;37.08;53.63;;
72415;Laerm;60995;52.154;4.498;2024-02-21T02:00:32;41.99;36.57;48.56;;
72415;Laerm;60995;52.154;4.498;2024-02-21T02:02:50;41.99;36.97;49.21;;
72415;Laerm;60995;52.154;4.498;2024-02-21T02:05:08;43.14;37.65;58.40;;
72415;Laerm;60995;52.154;4.498;2024-02-21T02:07:26;42.21;37.35;49.54;;
72415;Laerm;60995;52.154;4.498;2024-02-21T02:09:43;42.59;38.08;50.78;;
72415;Laerm;60995;52.154;4.498;2024-02-21T02:12:00;44.45;38.26;55.44;;
72415;Laerm;60995;52.154;4.498;2024-02-21T02:14:17;42.96;37.21;49.72;;
72415;Laerm;60995;52.154;4.498;2024-02-21T02:16:34;43.92;37.62;54.16;;
72415;Laerm;60995;52.154;4.498;2024-02-21T02:18:50;43.23;37.95;55.28;;
72415;Laerm;60995;52.154;4.498;2024-02-21T02:21:15;43.10;38.14;50.54;;
72415;Laerm;60995;52.154;4.498;2024-02-21T02:23:38;43.42;37.34;56.34;;
72415;Laerm;60995;52.154;4.498;2024-02-21T02:25:55;42.19;37.28;48.07;;
72415;Laerm;60995;52.154;4.498;2024-02-21T02:28:12;42.56;37.44;52.15;;
72415;Laerm;60995;52.154;4.498;2024-02-21T02:30:28;43.00;38.21;57.54;;
72415;Laerm;60995;52.154;4.498;2024-02-21T02:32:46;41.86;36.83;48.45;;
72415;Laerm;60995;52.154;4.498;2024-02-21T02:35:02;42.09;37.18;49.95;;
72415;Laerm;60995;52.154;4.498;2024-02-21T02:37:19;41.78;37.02;48.60;;
72415;Laerm;60995;52.154;4.498;2024-02-21T02:39:35;42.01;37.19;48.97;;
72415;Laerm;60995;52.154;4.498;2024-02-21T02:41:51;42.47;37.37;54.22;;
72415;Laerm;60995;52.154;4.498;2024-02-21T02:44:08;42.49;37.63;58.52;;
72415;Laerm;60995;52.154;4.498;2024-02-21T02:46:24;43.00;37.53;52.75;;
72415;Laerm;60995;52.154;4.498;2024-02-21T02:48:40;42.84;37.44;52.33;;
72415;Laerm;60995;52.154;4.498;2024-02-21T02:50:57;45.53;37.04;59.26;;
72415;Laerm;60995;52.154;4.498;2024-02-21T02:53:13;42.80;37.79;52.05;;
72415;Laerm;60995;52.154;4.498;2024-02-21T02:55:29;43.22;37.20;59.12;;
72415;Laerm;60995;52.154;4.498;2024-02-21T02:57:46;42.51;36.66;48.39;;
72415;Laerm;60995;52.154;4.498;2024-02-21T03:00:03;43.71;38.20;50.39;;
72415;Laerm;60995;52.154;4.498;2024-02-21T03:02:19;43.93;37.30;55.13;;
72415;Laerm;60995;52.154;4.498;2024-02-21T03:04:39;42.73;38.30;48.25;;
72415;Laerm;60995;52.154;4.498;2024-02-21T03:06:56;44.35;37.64;56.13;;
72415;Laerm;60995;52.154;4.498;2024-02-21T03:09:13;42.82;36.50;60.47;;
72415;Laerm;60995;52.154;4.498;2024-02-21T03:11:31;42.28;37.39;49.17;;
72415;Laerm;60995;52.154;4.498;2024-02-21T03:13:48;43.76;37.34;54.35;;
72415;Laerm;60995;52.154;4.498;2024-02-21T03:16:05;44.38;36.88;54.01;;
72415;Laerm;60995;52.154;4.498;2024-02-21T03:18:21;41.86;37.17;48.69;;
72415;Laerm;60995;52.154;4.498;2024-02-21T03:20:38;42.13;37.33;53.13;;
72415;Laerm;60995;52.154;4.498;2024-02-21T03:22:54;42.75;37.47;50.81;;
72415;Laerm;60995;52.154;4.498;2024-02-21T03:25:10;42.94;38.00;48.99;;
72415;Laerm;60995;52.154;4.498;2024-02-21T03:27:27;43.13;37.15;53.13;;
72415;Laerm;60995;52.154;4.498;2024-02-21T03:29:43;42.65;37.01;49.44;;
72415;Laerm;60995;52.154;4.498;2024-02-21T03:32:00;42.84;37.43;48.34;;
72415;Laerm;60995;52.154;4.498;2024-02-21T03:34:16;42.73;37.71;49.84;;
72415;Laerm;60995;52.154;4.498;2024-02-21T03:36:32;42.82;37.87;51.96;;
72415;Laerm;60995;52.154;4.498;2024-02-21T03:38:49;42.92;38.12;50.62;;
72415;Laerm;60995;52.154;4.498;2024-02-21T03:41:05;42.83;37.24;48.93;;
72415;Laerm;60995;52.154;4.498;2024-02-21T03:43:21;42.18;37.62;48.02;;
72415;Laerm;60995;52.154;4.498;2024-02-21T03:45:38;43.33;37.82;50.38;;
72415;Laerm;60995;52.154;4.498;2024-02-21T03:47:54;42.77;37.31;50.58;;
72415;Laerm;60995;52.154;4.498;2024-02-21T03:50:12;45.10;38.77;53.85;;
72415;Laerm;60995;52.154;4.498;2024-02-21T03:52:30;43.08;37.74;49.70;;
72415;Laerm;60995;52.154;4.498;2024-02-21T03:54:46;43.50;38.49;52.09;;
72415;Laerm;60995;52.154;4.498;2024-02-21T03:57:05;44.27;38.69;62.64;;
72415;Laerm;60995;52.154;4.498;2024-02-21T03:59:22;43.69;38.68;49.73;;
72415;Laerm;60995;52.154;4.498;2024-02-21T04:01:39;44.08;39.13;49.47;;
72415;Laerm;60995;52.154;4.498;2024-02-21T04:03:55;43.63;38.54;49.10;;
72415;Laerm;60995;52.154;4.498;2024-02-21T04:06:12;44.62;38.86;55.29;;
72415;Laerm;60995;52.154;4.498;2024-02-21T04:08:28;44.46;39.38;55.25;;
72415;Laerm;60995;52.154;4.498;2024-02-21T04:10:44;43.69;38.90;48.68;;
72415;Laerm;60995;52.154;4.498;2024-02-21T04:13:01;45.28;40.13;52.81;;
72415;Laerm;60995;52.154;4.498;2024-02-21T04:15:17;44.83;40.00;51.76;;
72415;Laerm;60995;52.154;4.498;2024-02-21T04:17:34;44.63;39.45;53.17;;
72415;Laerm;60995;52.154;4.498;2024-02-21T04:19:55;44.49;39.47;52.01;;
72415;Laerm;60995;52.154;4.498;2024-02-21T04:22:17;44.26;39.61;49.68;;
72415;Laerm;60995;52.154;4.498;2024-02-21T04:24:33;45.54;40.71;56.04;;
72415;Laerm;60995;52.154;4.498;2024-02-21T04:26:51;45.97;40.13;54.06;;
72415;Laerm;60995;52.154;4.498;2024-02-21T04:29:07;46.88;40.96;56.23;;
72415;Laerm;60995;52.154;4.498;2024-02-21T04:31:24;46.84;40.57;56.26;;
72415;Laerm;60995;52.154;4.498;2024-02-21T04:33:40;45.92;38.66;57.89;;
72415;Laerm;60995;52.154;4.498;2024-02-21T04:35:57;46.44;41.71;54.02;;
72415;Laerm;60995;52.154;4.498;2024-02-21T04:38:14;46.01;41.52;51.19;;
72415;Laerm;60995;52.154;4.498;2024-02-21T04:40:31;46.98;40.05;56.53;;
72415;Laerm;60995;52.154;4.498;2024-02-21T04:42:47;46.42;41.69;51.98;;
72415;Laerm;60995;52.154;4.498;2024-02-21T04:45:04;46.07;40.50;53.44;;
72415;Laerm;60995;52.154;4.498;2024-02-21T04:47:20;46.96;41.82;54.16;;
72415;Laerm;60995;52.154;4.498;2024-02-21T04:49:37;46.51;41.48;54.23;;
72415;Laerm;60995;52.154;4.498;2024-02-21T04:51:53;47.05;42.15;53.66;;
72415;Laerm;60995;52.154;4.498;2024-02-21T04:54:09;48.05;42.41;55.16;;
72415;Laerm;60995;52.154;4.498;2024-02-21T04:56:25;47.97;42.28;54.43;;
72415;Laerm;60995;52.154;4.498;2024-02-21T04:58:42;47.74;42.65;55.23;;
72415;Laerm;60995;52.154;4.498;2024-02-21T05:00:58;47.84;42.32;54.01;;
72415;Laerm;60995;52.154;4.498;2024-02-21T05:03:15;47.94;41.94;54.51;;
72415;Laerm;60995;52.154;4.498;2024-02-21T05:05:31;48.34;42.93;57.09;;
72415;Laerm;60995;52.154;4.498;2024-02-21T05:07:47;47.89;41.97;53.99;;
72415;Laerm;60995;52.154;4.498;2024-02-21T05:10:04;47.15;41.77;53.23;;
72415;Laerm;60995;52.154;4.498;2024-02-21T05:12:20;47.85;42.25;54.51;;
72415;Laerm;60995;52.154;4.498;2024-02-21T05:14:37;49.72;42.55;57.46;;
72415;Laerm;60995;52.154;4.498;2024-02-21T05:16:53;49.57;43.40;57.77;;
72415;Laerm;60995;52.154;4.498;2024-02-21T05:19:09;49.43;42.72;65.03;;
72415;Laerm;60995;52.154;4.498;2024-02-21T05:21:26;49.70;44.88;55.74;;
72415;Laerm;60995;52.154;4.498;2024-02-21T05:23:44;49.28;43.51;57.80;;
72415;Laerm;60995;52.154;4.498;2024-02-21T05:26:00;49.97;45.05;62.57;;
72415;Laerm;60995;52.154;4.498;2024-02-21T05:28:19;50.30;44.85;64.96;;
72415;Laerm;60995;52.154;4.498;2024-02-21T05:30:36;51.03;45.89;58.99;;
72415;Laerm;60995;52.154;4.498;2024-02-21T05:32:52;52.09;45.79;58.27;;
72415;Laerm;60995;52.154;4.498;2024-02-21T05:35:08;50.90;45.78;62.84;;
72415;Laerm;60995;52.154;4.498;2024-02-21T05:37:25;51.03;44.59;56.68;;
72415;Laerm;60995;52.154;4.498;2024-02-21T05:39:41;51.14;45.42;57.95;;
72415;Laerm;60995;52.154;4.498;2024-02-21T05:41:57;51.34;45.86;59.27;;
72415;Laerm;60995;52.154;4.498;2024-02-21T05:44:14;50.80;44.98;61.19;;
72415;Laerm;60995;52.154;4.498;2024-02-21T05:46:30;50.50;44.40;63.65;;
72415;Laerm;60995;52.154;4.498;2024-02-21T05:48:46;51.07;44.10;61.51;;
72415;Laerm;60995;52.154;4.498;2024-02-21T05:51:03;51.35;46.15;64.25;;
72415;Laerm;60995;52.154;4.498;2024-02-21T05:53:19;50.97;45.73;58.76;;
72415;Laerm;60995;52.154;4.498;2024-02-21T05:55:36;50.57;44.93;56.50;;
72415;Laerm;60995;52.154;4.498;2024-02-21T05:57:55;50.43;44.37;59.66;;
72415;Laerm;60995;52.154;4.498;2024-02-21T06:00:12;50.82;44.76;57.78;;
72415;Laerm;60995;52.154;4.498;2024-02-21T06:02:29;52.47;46.45;66.04;;
72415;Laerm;60995;52.154;4.498;2024-02-21T06:04:45;51.63;45.19;60.79;;
72415;Laerm;60995;52.154;4.498;2024-02-21T06:07:02;51.56;45.98;57.85;;
72415;Laerm;60995;52.154;4.498;2024-02-21T06:09:19;54.64;45.72;79.50;;
72415;Laerm;60995;52.154;4.498;2024-02-21T06:11:35;50.59;44.49;58.12;;
72415;Laerm;60995;52.154;4.498;2024-02-21T06:13:55;50.66;45.41;59.88;;
72415;Laerm;60995;52.154;4.498;2024-02-21T06:16:12;51.55;44.70;61.39;;
72415;Laerm;60995;52.154;4.498;2024-02-21T06:18:30;51.00;46.47;59.50;;
72415;Laerm;60995;52.154;4.498;2024-02-21T06:20:47;51.42;45.59;56.99;;
72415;Laerm;60995;52.154;4.498;2024-02-21T06:23:03;52.07;45.82;68.41;;
72415;Laerm;60995;52.154;4.498;2024-02-21T06:25:19;50.74;45.21;62.02;;
72415;Laerm;60995;52.154;4.498;2024-02-21T06:27:36;52.89;46.25;60.15;;
72415;Laerm;60995;52.154;4.498;2024-02-21T06:29:53;51.80;45.29;64.34;;
72415;Laerm;60995;52.154;4.498;2024-02-21T06:32:09;50.64;45.43;56.03;;
72415;Laerm;60995;52.154;4.498;2024-02-21T06:34:25;50.95;45.30;58.81;;
72415;Laerm;60995;52.154;4.498;2024-02-21T06:36:45;50.78;44.87;62.35;;
72415;Laerm;60995;52.154;4.498;2024-02-21T06:39:01;51.26;45.35;63.43;;
72415;Laerm;60995;52.154;4.498;2024-02-21T06:41:18;51.31;45.66;61.49;;
72415;Laerm;60995;52.154;4.498;2024-02-21T06:43:35;51.91;46.28;60.66;;
72415;Laerm;60995;52.154;4.498;2024-02-21T06:45:51;51.16;45.92;63.10;;
72415;Laerm;60995;52.154;4.498;2024-02-21T06:48:08;51.85;46.29;66.91;;
72415;Laerm;60995;52.154;4.498;2024-02-21T06:50:24;51.35;45.64;60.01;;
72415;Laerm;60995;52.154;4.498;2024-02-21T06:52:40;51.60;45.72;59.11;;
72415;Laerm;60995;52.154;4.498;2024-02-21T06:54:58;52.63;46.81;63.06;;
72415;Laerm;60995;52.154;4.498;2024-02-21T06:57:14;55.01;47.63;64.38;;
72415;Laerm;60995;52.154;4.498;2024-02-21T06:59:34;52.37;46.01;61.27;;
72415;Laerm;60995;52.154;4.498;2024-02-21T07:01:54;50.58;45.35;56.40;;
72415;Laerm;60995;52.154;4.498;2024-02-21T07:04:13;50.78;45.35;55.42;;
72415;Laerm;60995;52.154;4.498;2024-02-21T07:06:30;52.79;46.53;68.26;;
72415;Laerm;60995;52.154;4.498;2024-02-21T07:08:47;51.02;46.05;58.65;;
72415;Laerm;60995;52.154;4.498;2024-02-21T07:11:03;51.27;46.23;58.90;;
72415;Laerm;60995;52.154;4.498;2024-02-21T07:13:20;52.12;47.57;57.79;;
72415;Laerm;60995;52.154;4.498;2024-02-21T07:15:37;52.76;45.52;65.94;;
72415;Laerm;60995;52.154;4.498;2024-02-21T07:17:54;51.85;46.12;59.93;;
72415;Laerm;60995;52.154;4.498;2024-02-21T07:20:10;51.93;46.51;58.95;;
72415;Laerm;60995;52.154;4.498;2024-02-21T07:22:27;52.75;46.80;61.35;;
72415;Laerm;60995;52.154;4.498;2024-02-21T07:24:43;53.34;47.17;64.42;;
72415;Laerm;60995;52.154;4.498;2024-02-21T07:26:59;52.54;46.82;64.69;;
72415;Laerm;60995;52.154;4.498;2024-02-21T07:29:20;52.73;47.08;69.84;;
72415;Laerm;60995;52.154;4.498;2024-02-21T07:31:43;53.14;46.20;72.59;;
72415;Laerm;60995;52.154;4.498;2024-02-21T07:34:00;53.17;47.54;67.96;;
72415;Laerm;60995;52.154;4.498;2024-02-21T07:36:29;52.72;47.20;62.89;;
72415;Laerm;60995;52.154;4.498;2024-02-21T07:38:46;52.48;46.30;59.25;;
72415;Laerm;60995;52.154;4.498;2024-02-21T07:41:02;54.90;48.66;63.92;;
72415;Laerm;60995;52.154;4.498;2024-02-21T07:43:20;54.03;47.48;65.95;;
72415;Laerm;60995;52.154;4.498;2024-02-21T07:45:38;52.23;44.70;64.73;;
72415;Laerm;60995;52.154;4.498;2024-02-21T07:47:55;51.44;45.56;60.02;;
72415;Laerm;60995;52.154;4.498;2024-02-21T07:50:11;55.51;47.54;64.91;;
72415;Laerm;60995;52.154;4.498;2024-02-21T07:52:28;51.59;45.65;58.74;;
72415;Laerm;60995;52.154;4.498;2024-02-21T07:54:44;52.19;47.46;64.63;;
72415;Laerm;60995;52.154;4.498;2024-02-21T07:57:00;51.74;46.20;56.82;;
72415;Laerm;60995;52.154;4.498;2024-02-21T07:59:17;52.77;46.98;61.16;;
72415;Laerm;60995;52.154;4.498;2024-02-21T08:01:34;51.17;46.50;56.47;;
72415;Laerm;60995;52.154;4.498;2024-02-21T08:03:50;51.75;45.92;60.51;;
72415;Laerm;60995;52.154;4.498;2024-02-21T08:06:12;53.95;45.53;72.99;;
72415;Laerm;60995;52.154;4.498;2024-02-21T08:08:29;53.34;44.79;69.49;;
72415;Laerm;60995;52.154;4.498;2024-02-21T08:10:45;52.12;45.66;67.18;;
72415;Laerm;60995;52.154;4.498;2024-02-21T08:13:02;51.81;45.71;64.60;;
72415;Laerm;60995;52.154;4.498;2024-02-21T08:15:18;51.69;46.27;61.28;;
72415;Laerm;60995;52.154;4.498;2024-02-21T08:17:34;51.65;45.41;59.51;;
72415;Laerm;60995;52.154;4.498;2024-02-21T08:19:51;55.57;46.81;69.55;;
72415;Laerm;60995;52.154;4.498;2024-02-21T08:22:07;52.02;44.90;58.29;;
72415;Laerm;60995;52.154;4.498;2024-02-21T08:24:23;51.53;46.89;64.42;;
72415;Laerm;60995;52.154;4.498;2024-02-21T08:26:44;51.39;45.75;58.33;;
72415;Laerm;60995;52.154;4.498;2024-02-21T08:29:03;52.64;46.62;62.33;;
72415;Laerm;60995;52.154;4.498;2024-02-21T08:31:20;52.62;45.85;68.34;;
72415;Laerm;60995;52.154;4.498;2024-02-21T08:33:36;52.08;46.42;65.08;;
72415;Laerm;60995;52.154;4.498;2024-02-21T08:35:54;51.59;45.62;59.33;;
72415;Laerm;60995;52.154;4.498;2024-02-21T08:38:11;52.87;47.53;61.29;;
72415;Laerm;60995;52.154;4.498;2024-02-21T08:40:28;53.41;48.05;67.96;;
72415;Laerm;60995;52.154;4.498;2024-02-21T08:42:44;52.65;47.94;60.95;;
72415;Laerm;60995;52.154;4.498;2024-02-21T08:45:02;52.03;46.66;59.75;;
72415;Laerm;60995;52.154;4.498;2024-02-21T08:47:19;51.76;46.30;62.88;;
72415;Laerm;60995;52.154;4.498;2024-02-21T08:49:35;52.28;47.13;67.15;;
72415;Laerm;60995;52.154;4.498;2024-02-21T08:51:53;53.15;47.22;61.91;;
72415;Laerm;60995;52.154;4.498;2024-02-21T08:54:09;51.90;46.78;60.52;;
72415;Laerm;60995;52.154;4.498;2024-02-21T08:56:26;51.68;46.43;59.47;;
72415;Laerm;60995;52.154;4.498;2024-02-21T08:58:42;52.74;47.46;67.80;;
72415;Laerm;60995;52.154;4.498;2024-02-21T09:00:58;51.71;46.40;59.50;;
72415;Laerm;60995;52.154;4.498;2024-02-21T09:03:14;51.45;45.42;59.87;;
72415;Laerm;60995;52.154;4.498;2024-02-21T09:05:31;52.26;46.45;58.89;;
72415;Laerm;60995;52.154;4.498;2024-02-21T09:07:47;52.35;46.34;60.56;;
72415;Laerm;60995;52.154;4.498;2024-02-21T09:10:04;52.68;46.57;59.27;;
72415;Laerm;60995;52.154;4.498;2024-02-21T09:12:21;52.10;46.41;60.11;;
72415;Laerm;60995;52.154;4.498;2024-02-21T09:14:38;52.67;47.68;63.28;;
72415;Laerm;60995;52.154;4.498;2024-02-21T09:16:54;52.52;46.42;64.49;;
72415;Laerm;60995;52.154;4.498;2024-02-21T09:19:12;59.19;47.34;75.37;;
72415;Laerm;60995;52.154;4.498;2024-02-21T09:21:28;53.90;48.55;70.00;;
72415;Laerm;60995;52.154;4.498;2024-02-21T09:23:45;53.43;47.00;62.82;;
72415;Laerm;60995;52.154;4.498;2024-02-21T09:26:01;51.99;46.42;56.61;;
72415;Laerm;60995;52.154;4.498;2024-02-21T09:28:20;51.69;46.96;59.52;;
72415;Laerm;60995;52.154;4.498;2024-02-21T09:30:36;55.86;46.98;71.91;;
72415;Laerm;60995;52.154;4.498;2024-02-21T09:32:54;54.04;46.98;68.56;;
72415;Laerm;60995;52.154;4.498;2024-02-21T09:35:10;55.66;47.57;71.21;;
72415;Laerm;60995;52.154;4.498;2024-02-21T09:37:28;51.81;46.82;56.95;;
72415;Laerm;60995;52.154;4.498;2024-02-21T09:39:44;52.15;48.05;58.22;;
72415;Laerm;60995;52.154;4.498;2024-02-21T09:42:11;52.12;47.27;65.32;;
72415;Laerm;60995;52.154;4.498;2024-02-21T09:44:36;52.11;47.48;60.05;;
72415;Laerm;60995;52.154;4.498;2024-02-21T09:47:06;53.26;47.56;66.97;;
72415;Laerm;60995;52.154;4.498;2024-02-21T09:49:31;54.57;47.54;75.86;;
72415;Laerm;60995;52.154;4.498;2024-02-21T09:51:55;52.54;46.25;60.27;;
72415;Laerm;60995;52.154;4.498;2024-02-21T09:54:13;52.53;44.68;63.63;;
72415;Laerm;60995;52.154;4.498;2024-02-21T09:56:30;52.73;47.27;62.39;;
72415;Laerm;60995;52.154;4.498;2024-02-21T09:58:47;52.61;47.34;59.31;;
72415;Laerm;60995;52.154;4.498;2024-02-21T10:01:03;53.91;48.22;66.19;;
72415;Laerm;60995;52.154;4.498;2024-02-21T10:03:22;52.85;47.80;64.00;;
72415;Laerm;60995;52.154;4.498;2024-02-21T10:05:47;52.37;47.02;62.07;;
72415;Laerm;60995;52.154;4.498;2024-02-21T10:08:05;52.48;47.08;62.36;;
72415;Laerm;60995;52.154;4.498;2024-02-21T10:10:21;52.64;47.40;64.31;;
72415;Laerm;60995;52.154;4.498;2024-02-21T10:12:51;52.40;47.09;64.25;;
72415;Laerm;60995;52.154;4.498;2024-02-21T10:15:08;51.86;46.62;61.28;;
72415;Laerm;60995;52.154;4.498;2024-02-21T10:17:24;52.46;47.13;59.13;;
72415;Laerm;60995;52.154;4.498;2024-02-21T10:19:40;52.72;48.55;59.82;;
72415;Laerm;60995;52.154;4.498;2024-02-21T10:22:08;52.75;45.79;61.44;;
72415;Laerm;60995;52.154;4.498;2024-02-21T10:24:27;52.74;47.11;62.73;;
72415;Laerm;60995;52.154;4.498;2024-02-21T10:26:44;52.18;47.01;56.98;;
72415;Laerm;60995;52.154;4.498;2024-02-21T10:29:01;52.29;47.66;60.69;;
72415;Laerm;60995;52.154;4.498;2024-02-21T10:31:24;52.87;47.90;65.98;;
72415;Laerm;60995;52.154;4.498;2024-02-21T10:33:41;53.30;47.94;67.49;;
72415;Laerm;60995;52.154;4.498;2024-02-21T10:36:09;51.77;46.07;59.32;;
72415;Laerm;60995;52.154;4.498;2024-02-21T10:38:26;52.30;46.03;58.62;;
72415;Laerm;60995;52.154;4.498;2024-02-21T10:40:46;53.31;46.92;67.47;;
72415;Laerm;60995;52.154;4.498;2024-02-21T10:43:03;55.07;48.38;67.54;;
72415;Laerm;60995;52.154;4.498;2024-02-21T10:45:27;52.97;46.55;61.48;;
72415;Laerm;60995;52.154;4.498;2024-02-21T10:47:52;51.85;46.04;63.36;;
72415;Laerm;60995;52.154;4.498;2024-02-21T10:50:15;52.77;46.37;66.22;;
72415;Laerm;60995;52.154;4.498;2024-02-21T10:52:51;51.80;47.01;60.30;;
72415;Laerm;60995;52.154;4.498;2024-02-21T10:55:20;55.50;47.95;69.87;;
72415;Laerm;60995;52.154;4.498;2024-02-21T10:57:40;52.56;47.14;59.38;;
72415;Laerm;60995;52.154;4.498;2024-02-21T10:59:59;52.08;45.73;63.14;;
72415;Laerm;60995;52.154;4.498;2024-02-21T11:02:15;52.07;46.25;62.35;;
72415;Laerm;60995;52.154;4.498;2024-02-21T11:04:34;52.09;47.19;62.52;;
72415;Laerm;60995;52.154;4.498;2024-02-21T11:06:52;52.56;48.03;61.03;;
72415;Laerm;60995;52.154;4.498;2024-02-21T11:09:10;53.05;48.05;69.42;;
72415;Laerm;60995;52.154;4.498;2024-02-21T11:11:27;52.73;47.48;70.15;;
72415;Laerm;60995;52.154;4.498;2024-02-21T11:13:44;53.10;47.99;61.82;;
72415;Laerm;60995;52.154;4.498;2024-02-21T11:16:21;52.52;46.33;59.94;;
72415;Laerm;60995;52.154;4.498;2024-02-21T11:18:38;53.57;47.38;67.12;;
72415;Laerm;60995;52.154;4.498;2024-02-21T11:20:54;52.52;47.36;65.20;;
72415;Laerm;60995;52.154;4.498;2024-02-21T11:23:10;52.41;47.37;67.38;;
72415;Laerm;60995;52.154;4.498;2024-02-21T11:25:30;52.39;46.94;61.15;;
72415;Laerm;60995;52.154;4.498;2024-02-21T11:27:48;51.78;46.77;59.87;;
72415;Laerm;60995;52.154;4.498;2024-02-21T11:30:05;52.54;45.80;71.46;;
72415;Laerm;60995;52.154;4.498;2024-02-21T11:32:22;51.07;45.78;61.43;;
72415;Laerm;60995;52.154;4.498;2024-02-21T11:34:38;52.35;46.62;65.86;;
72415;Laerm;60995;52.154;4.498;2024-02-21T11:36:56;52.24;46.31;60.54;;
72415;Laerm;60995;52.154;4.498;2024-02-21T11:39:12;51.22;46.28;60.39;;
72415;Laerm;60995;52.154;4.498;2024-02-21T11:41:28;51.59;46.81;60.64;;
72415;Laerm;60995;52.154;4.498;2024-02-21T11:43:45;51.15;45.77;56.45;;
72415;Laerm;60995;52.154;4.498;2024-02-21T11:46:01;51.74;46.10;60.31;;
72415;Laerm;60995;52.154;4.498;2024-02-21T11:48:21;52.42;44.74;65.98;;
72415;Laerm;60995;52.154;4.498;2024-02-21T11:50:37;51.36;45.86;59.91;;
72415;Laerm;60995;52.154;4.498;2024-02-21T11:52:55;50.67;45.62;60.14;;
72415;Laerm;60995;52.154;4.498;2024-02-21T11:55:12;51.93;46.79;62.85;;
72415;Laerm;60995;52.154;4.498;2024-02-21T11:57:28;51.84;45.15;72.58;;
72415;Laerm;60995;52.154;4.498;2024-02-21T11:59:45;51.17;46.48;57.21;;
72415;Laerm;60995;52.154;4.498;2024-02-21T12:02:03;50.76;45.57;63.00;;
72415;Laerm;60995;52.154;4.498;2024-02-21T12:04:20;50.60;44.07;57.10;;
72415;Laerm;60995;52.154;4.498;2024-02-21T12:06:37;52.06;45.89;58.42;;
72415;Laerm;60995;52.154;4.498;2024-02-21T12:08:58;51.37;45.72;62.17;;
72415;Laerm;60995;52.154;4.498;2024-02-21T12:11:23;51.36;46.52;57.76;;
72415;Laerm;60995;52.154;4.498;2024-02-21T12:13:40;52.19;47.07;59.19;;
72415;Laerm;60995;52.154;4.498;2024-02-21T12:15:56;51.41;46.76;61.23;;
72415;Laerm;60995;52.154;4.498;2024-02-21T12:18:13;52.67;46.18;74.07;;
72415;Laerm;60995;52.154;4.498;2024-02-21T12:20:30;52.49;47.54;70.61;;
72415;Laerm;60995;52.154;4.498;2024-02-21T12:22:49;51.77;46.61;62.78;;
72415;Laerm;60995;52.154;4.498;2024-02-21T12:25:21;51.52;47.47;56.74;;
72415;Laerm;60995;52.154;4.498;2024-02-21T12:27:42;51.37;45.55;57.45;;
72415;Laerm;60995;52.154;4.498;2024-02-21T12:29:59;52.69;45.98;66.68;;
72415;Laerm;60995;52.154;4.498;2024-02-21T12:32:16;51.94;45.49;60.16;;
72415;Laerm;60995;52.154;4.498;2024-02-21T12:34:34;54.20;46.57;78.17;;
72415;Laerm;60995;52.154;4.498;2024-02-21T12:36:52;52.64;46.54;65.75;;
72415;Laerm;60995;52.154;4.498;2024-02-21T12:39:09;53.15;47.55;65.31;;
72415;Laerm;60995;52.154;4.498;2024-02-21T12:41:26;53.98;48.03;68.62;;
72415;Laerm;60995;52.154;4.498;2024-02-21T12:43:42;52.55;46.73;68.90;;
72415;Laerm;60995;52.154;4.498;2024-02-21T12:45:59;52.09;45.97;56.63;;
72415;Laerm;60995;52.154;4.498;2024-02-21T12:48:15;53.48;48.33;65.44;;
72415;Laerm;60995;52.154;4.498;2024-02-21T12:50:31;52.46;47.41;62.22;;